Time;durP1;ratioP1;P1;durP2;ratioP2;P2;SDS_P1;SDS_P2;PMS_P1;PMS_P2;Temp;Humidity;BMP_temperature;BMP_pressure;BME280_temperature;BME280_humidity;BME280_pressure;Samples;Min_cycle;Max_cycle;Signal;HPM_P1;HPM_P2
2022/04/06 00:01:50;;;;;;;13.13;8.57;;;;;;;11.92;50.19;94253.75;5123451;28;20200;-77
2022/04/06 00:04:16;;;;;;;15.83;9.20;;;;;;;11.87;50.29;94252.59;5106316;28;20201;-79
2022/04/06 00:06:43;;;;;;;14.40;8.60;;;;;;;11.85;50.20;94263.00;5106387;28;20537;-79
2022/04/06 00:09:12;;;;;;;13.47;8.43;;;;;;;11.80;50.38;94253.19;5107352;28;20557;-78
2022/04/06 00:11:38;;;;;;;11.40;8.00;;;;;;;11.79;50.17;94254.16;5118925;28;20651;-79
2022/04/06 00:14:05;;;;;;;16.07;9.10;;;;;;;11.70;50.44;94246.56;5125519;28;20201;-79
2022/04/06 00:16:32;;;;;;;12.37;7.93;;;;;;;11.68;50.24;94241.63;5127573;28;20197;-78
2022/04/06 00:18:59;;;;;;;9.73;7.57;;;;;;;11.70;50.57;94246.56;5127582;28;20257;-78
2022/04/06 00:21:27;;;;;;;12.83;7.80;;;;;;;11.71;50.67;94261.00;5126611;28;20193;-79
2022/04/06 00:23:54;;;;;;;14.27;8.57;;;;;;;11.68;50.66;94254.44;5127224;28;20185;-78
2022/04/06 00:26:22;;;;;;;14.80;8.60;;;;;;;11.62;50.70;94249.13;5125250;28;20193;-78
2022/04/06 00:28:50;;;;;;;13.57;7.90;;;;;;;11.54;50.84;94245.59;5117401;28;20193;-80
2022/04/06 00:31:17;;;;;;;12.57;7.87;;;;;;;11.56;50.97;94251.34;5105241;28;20189;-79
2022/04/06 00:33:44;;;;;;;16.27;9.00;;;;;;;11.56;51.00;94264.13;5123310;28;20223;-78
2022/04/06 00:36:11;;;;;;;14.30;7.60;;;;;;;11.52;51.35;94259.47;5127327;28;20185;-79
2022/04/06 00:38:38;;;;;;;15.43;7.83;;;;;;;11.49;50.97;94252.94;5127312;28;20659;-78
2022/04/06 00:41:04;;;;;;;11.70;8.00;;;;;;;11.49;51.14;94259.81;5126960;28;20188;-78
2022/04/06 00:43:33;;;;;;;14.20;8.70;;;;;;;11.47;51.02;94266.84;5126730;28;20298;-79
2022/04/06 00:45:59;;;;;;;16.37;8.90;;;;;;;11.46;50.63;94263.47;5113574;28;20212;-78
2022/04/06 00:48:26;;;;;;;16.00;8.40;;;;;;;11.45;50.77;94276.44;5113463;28;20193;-78
2022/04/06 00:50:53;;;;;;;14.27;9.30;;;;;;;11.40;50.81;94270.94;5113215;28;20207;-79
2022/04/06 00:53:20;;;;;;;16.57;8.60;;;;;;;11.24;50.46;94249.44;5112560;28;20219;-78
2022/04/06 00:55:47;;;;;;;15.30;8.03;;;;;;;11.33;50.53;94260.53;5113205;28;20193;-79
2022/04/06 00:58:14;;;;;;;14.27;8.70;;;;;;;11.36;50.44;94267.13;5112344;28;20176;-78
2022/04/06 01:00:42;;;;;;;15.60;8.23;;;;;;;11.35;50.32;94270.59;5112854;28;20192;-76
2022/04/06 01:03:10;;;;;;;13.07;7.63;;;;;;;11.33;50.33;94272.53;5113026;28;20185;-77
2022/04/06 01:05:37;;;;;;;12.83;8.00;;;;;;;11.25;50.31;94265.59;5113013;28;20659;-77
2022/04/06 01:08:04;;;;;;;11.67;7.90;;;;;;;11.20;50.19;94260.94;5113063;28;20218;-80
2022/04/06 01:10:31;;;;;;;12.17;8.07;;;;;;;11.25;50.65;94270.72;5113001;28;20177;-77
2022/04/06 01:12:59;;;;;;;11.67;6.80;;;;;;;11.13;50.79;94256.59;5097124;28;20205;-78
2022/04/06 01:15:26;;;;;;;17.40;7.77;;;;;;;11.21;50.83;94271.97;5092619;28;20178;-80
2022/04/06 01:17:54;;;;;;;14.70;8.37;;;;;;;11.18;51.07;94269.72;5092569;28;20193;-79
2022/04/06 01:20:21;;;;;;;12.50;7.10;;;;;;;11.16;51.00;94269.88;5093186;28;20561;-77
2022/04/06 01:22:49;;;;;;;11.13;7.07;;;;;;;11.06;50.94;94261.50;5093624;28;20186;-76
2022/04/06 01:25:16;;;;;;;14.27;8.27;;;;;;;11.11;51.08;94266.97;5092192;28;20792;-77
2022/04/06 01:27:43;;;;;;;12.60;6.97;;;;;;;11.10;50.68;94262.81;5108042;28;20193;-78
2022/04/06 01:30:10;;;;;;;17.17;8.93;;;;;;;11.08;50.89;94264.72;5112536;28;20192;-78
2022/04/06 01:32:37;;;;;;;11.70;7.70;;;;;;;11.06;50.70;94266.63;5097824;28;20188;-78
2022/04/06 01:35:06;;;;;;;15.03;7.90;;;;;;;11.03;50.66;94266.94;5092208;28;20221;-79
2022/04/06 01:37:34;;;;;;;12.00;7.67;;;;;;;11.02;50.22;94265.34;5091911;28;20182;-78
2022/04/06 01:40:04;;;;;;;14.73;8.23;;;;;;;10.99;51.04;94260.50;5091962;28;20189;-77
2022/04/06 01:42:31;;;;;;;12.10;7.53;;;;;;;10.94;50.76;94255.84;5092050;28;20194;-79
2022/04/06 01:44:59;;;;;;;12.70;7.47;;;;;;;10.94;50.54;94253.28;5091508;28;20185;-78
2022/04/06 01:47:26;;;;;;;12.80;7.30;;;;;;;10.92;51.03;94262.06;5092155;28;20220;-78
2022/04/06 01:52:37;;;;;;;12.97;7.67;;;;;;;10.87;51.21;94267.63;5107610;28;20630;-79
2022/04/06 01:55:08;;;;;;;12.23;8.17;;;;;;;10.85;51.49;94272.09;5112013;28;20311;-78
2022/04/06 01:57:35;;;;;;;9.87;7.50;;;;;;;10.78;51.60;94263.41;5111417;28;20189;-78
2022/04/06 02:00:02;;;;;;;13.77;8.23;;;;;;;10.80;51.66;94270.00;5111645;28;20181;-77
2022/04/06 02:02:32;;;;;;;9.57;7.60;;;;;;;10.72;51.85;94259.69;5112239;28;20219;-77
2022/04/06 02:04:59;;;;;;;10.97;7.63;;;;;;;10.76;51.90;94268.69;5111570;28;20197;-76
2022/04/06 02:07:26;;;;;;;13.20;7.07;;;;;;;10.75;52.31;94272.19;5111611;28;20188;-76
2022/04/06 02:09:54;;;;;;;8.30;6.83;;;;;;;10.74;52.45;94278.22;5112092;28;20186;-76
2022/04/06 02:12:22;;;;;;;10.67;7.07;;;;;;;10.73;52.70;94275.84;5111745;28;20725;-76
2022/04/06 02:14:49;;;;;;;12.43;7.50;;;;;;;10.70;52.94;94282.03;5111306;28;20228;-77
2022/04/06 02:17:17;;;;;;;15.00;7.53;;;;;;;10.67;52.89;94282.34;5092391;28;20201;-77
2022/04/06 02:19:43;;;;;;;12.87;7.67;;;;;;;10.66;53.35;94282.47;5091030;28;20668;-78
2022/04/06 02:22:10;;;;;;;12.17;7.93;;;;;;;10.63;53.69;94280.25;5092840;28;20193;-77
2022/04/06 02:24:38;;;;;;;10.33;6.80;;;;;;;10.61;53.83;94277.03;5110353;28;20258;-78
2022/04/06 02:27:07;;;;;;;12.87;7.40;;;;;;;10.48;54.12;94262.84;5111124;28;20224;-80
2022/04/06 02:29:36;;;;;;;10.37;7.50;;;;;;;10.55;54.41;94279.22;5111258;28;20220;-77
2022/04/06 02:32:03;;;;;;;13.17;7.50;;;;;;;10.53;54.65;94286.25;5095011;28;20216;-76
2022/04/06 02:34:30;;;;;;;13.23;7.33;;;;;;;10.48;54.57;94277.41;5090741;28;20276;-78
2022/04/06 02:36:57;;;;;;;11.10;7.97;;;;;;;10.52;54.83;94276.94;5090889;28;20223;-78
2022/04/06 02:39:24;;;;;;;12.03;8.03;;;;;;;10.53;54.64;94293.09;5090942;28;20274;-78
2022/04/06 02:41:51;;;;;;;10.80;7.53;;;;;;;10.52;54.80;94286.38;5090754;28;20194;-79
2022/04/06 02:44:18;;;;;;;11.33;7.70;;;;;;;10.45;55.14;94283.63;5100696;28;20631;-78
2022/04/06 02:46:48;;;;;;;12.77;7.70;;;;;;;10.47;55.08;94291.94;5111014;28;20200;-80
2022/04/06 02:49:16;;;;;;;10.50;7.23;;;;;;;10.43;55.36;94287.25;5111201;28;20181;-77
2022/04/06 02:51:43;;;;;;;13.23;7.93;;;;;;;10.44;55.49;94286.31;5094874;28;20689;-78
2022/04/06 02:54:10;;;;;;;10.40;7.37;;;;;;;10.34;55.42;94280.47;5090735;28;20232;-78
2022/04/06 02:56:37;;;;;;;12.17;7.40;;;;;;;10.35;55.35;94282.88;5090673;28;20193;-78
2022/04/06 02:59:04;;;;;;;14.13;7.77;;;;;;;10.38;55.45;94294.56;5090520;28;20186;-79
2022/04/06 03:01:31;;;;;;;11.90;8.03;;;;;;;10.33;55.85;94299.31;5090649;28;20200;-77
2022/04/06 03:03:59;;;;;;;12.27;7.37;;;;;;;10.37;55.73;94304.00;5090447;28;20203;-77
2022/04/06 03:06:26;;;;;;;10.87;7.70;;;;;;;10.37;55.97;94306.56;5090528;28;20193;-77
2022/04/06 03:08:53;;;;;;;11.77;7.47;;;;;;;10.34;55.76;94306.03;5090006;28;20216;-78
2022/04/06 03:11:22;;;;;;;15.10;7.80;;;;;;;10.29;55.76;94297.06;5104674;28;20181;-78
2022/04/06 03:13:49;;;;;;;20.07;7.57;;;;;;;10.28;55.76;94297.22;5110016;28;21023;-77
2022/04/06 03:16:16;;;;;;;13.23;7.70;;;;;;;10.30;55.72;94296.09;5110806;28;20193;-76
2022/04/06 03:18:43;;;;;;;12.93;7.97;;;;;;;10.29;56.03;94304.72;5110780;28;20181;-78
2022/04/06 03:21:11;;;;;;;15.13;8.23;;;;;;;10.22;56.17;94300.28;5110515;28;20189;-78
2022/04/06 03:23:38;;;;;;;11.93;7.10;;;;;;;10.25;56.19;94307.72;5110281;28;20185;-76
2022/04/06 03:26:05;;;;;;;11.87;6.73;;;;;;;10.23;56.19;94309.56;5110603;28;20189;-78
2022/04/06 03:28:32;;;;;;;9.87;7.40;;;;;;;10.22;56.20;94311.31;5110103;28;20570;-78
2022/04/06 03:30:59;;;;;;;10.13;7.27;;;;;;;10.18;56.62;94311.75;5110688;28;20189;-78
2022/04/06 03:33:26;;;;;;;10.97;7.20;;;;;;;10.18;56.75;94317.66;5108394;28;20307;-78
2022/04/06 03:35:53;;;;;;;10.33;6.60;;;;;;;10.07;56.76;94299.19;5110234;28;20283;-79
2022/04/06 03:38:21;;;;;;;9.93;6.30;;;;;;;10.16;56.84;94319.56;5110168;28;20245;-78
2022/04/06 03:40:48;;;;;;;11.73;7.57;;;;;;;10.12;56.79;94315.69;5109598;28;20188;-77
2022/04/06 03:43:15;;;;;;;9.60;6.43;;;;;;;10.13;56.71;94317.28;5110189;28;20181;-77
2022/04/06 03:45:42;;;;;;;12.07;7.17;;;;;;;10.12;56.89;94318.25;5110185;28;20224;-77
2022/04/06 03:48:10;;;;;;;11.10;7.37;;;;;;;10.05;57.10;94312.91;5110392;28;20192;-77
2022/04/06 03:50:36;;;;;;;13.60;6.70;;;;;;;10.11;56.97;94329.44;5105679;28;20284;-78
2022/04/06 03:53:03;;;;;;;10.80;7.17;;;;;;;10.13;56.84;94332.63;5089693;28;20295;-78
2022/04/06 03:55:32;;;;;;;9.83;6.27;;;;;;;10.12;56.37;94333.56;5089412;28;20216;-77
2022/04/06 03:57:59;;;;;;;13.67;7.07;;;;;;;10.11;56.42;94331.97;5089858;28;20193;-78
2022/04/06 04:00:26;;;;;;;15.90;7.43;;;;;;;10.08;56.55;94326.34;5089810;28;20198;-77
2022/04/06 04:02:53;;;;;;;10.83;7.73;;;;;;;10.11;56.65;94336.28;5090746;28;20712;-77
2022/04/06 04:05:20;;;;;;;10.33;7.13;;;;;;;10.11;56.33;94341.41;5089807;28;20201;-77
2022/04/06 04:07:47;;;;;;;14.43;7.37;;;;;;;10.11;56.33;94347.31;5089945;28;20286;-78
2022/04/06 04:10:14;;;;;;;13.47;8.80;;;;;;;10.12;56.11;94343.81;5096890;28;20194;-77
2022/04/06 04:12:43;;;;;;;14.23;8.60;;;;;;;10.12;55.98;94348.09;5110031;28;20254;-77
2022/04/06 04:15:10;;;;;;;18.73;8.77;;;;;;;10.13;55.98;94347.16;5109483;28;20217;-78
2022/04/06 04:17:37;;;;;;;18.80;8.90;;;;;;;10.14;55.89;94348.75;5110082;28;20193;-80
2022/04/06 04:20:04;;;;;;;20.70;10.10;;;;;;;10.06;55.63;94334.16;5110068;28;20197;-79
2022/04/06 04:22:31;;;;;;;14.27;9.23;;;;;;;10.22;55.25;94352.19;5109744;28;20189;-77
2022/04/06 04:24:58;;;;;;;15.93;9.63;;;;;;;10.23;55.04;94346.16;5112798;28;20722;-78
2022/04/06 04:27:25;;;;;;;20.07;10.30;;;;;;;10.35;54.74;94351.88;5113553;28;20177;-79
2022/04/06 04:29:53;;;;;;;18.53;10.33;;;;;;;10.40;54.85;94352.25;5099422;28;20198;-77
2022/04/06 04:32:20;;;;;;;18.07;9.77;;;;;;;10.52;54.34;94365.63;5102579;28;20192;-80
2022/04/06 04:34:47;;;;;;;15.07;11.07;;;;;;;10.56;54.23;94364.41;5113211;28;20228;-78
2022/04/06 04:37:14;;;;;;;27.17;12.13;;;;;;;10.62;53.58;94374.06;5112624;28;20590;-81
2022/04/06 04:39:41;;;;;;;23.57;12.60;;;;;;;10.64;53.43;94369.59;5113950;28;20181;-78
2022/04/06 04:42:09;;;;;;;17.97;10.43;;;;;;;10.75;53.13;94371.94;5113714;28;20192;-79
2022/04/06 04:44:36;;;;;;;20.00;11.63;;;;;;;10.85;52.65;94376.16;5113526;28;20315;-78
2022/04/06 04:47:04;;;;;;;25.73;13.20;;;;;;;10.87;52.29;94364.81;5113577;28;20238;-78
2022/04/06 04:49:31;;;;;;;18.47;11.70;;;;;;;11.03;52.08;94379.50;5096111;28;20197;-75
2022/04/06 04:51:58;;;;;;;15.90;11.20;;;;;;;11.12;51.73;94390.59;5092855;28;20192;-79
2022/04/06 04:54:26;;;;;;;18.33;11.57;;;;;;;11.13;51.53;94377.66;5092822;28;20743;-79
2022/04/06 04:56:53;;;;;;;26.03;13.37;;;;;;;11.27;51.01;94392.50;5093000;28;20194;-75
2022/04/06 04:59:20;;;;;;;22.73;13.53;;;;;;;11.34;50.89;94400.38;5092949;28;20181;-79
2022/04/06 05:01:47;;;;;;;22.13;12.37;;;;;;;11.39;50.84;94399.91;5093405;28;20178;-76
2022/04/06 05:04:15;;;;;;;18.30;12.30;;;;;;;11.50;50.56;94407.38;5093408;28;20570;-78
2022/04/06 05:06:42;;;;;;;24.47;12.63;;;;;;;11.64;50.30;94411.13;5092764;28;20212;-74
2022/04/06 05:09:08;;;;;;;21.40;12.93;;;;;;;11.84;49.81;94415.13;5092306;28;20622;-73
2022/04/06 05:11:36;;;;;;;19.93;12.37;;;;;;;12.11;49.69;94416.69;5092715;28;20679;-76
2022/04/06 05:14:03;;;;;;;19.43;11.93;;;;;;;12.48;49.62;94416.34;5103910;28;20196;-74
2022/04/06 05:16:30;;;;;;;18.57;11.57;;;;;;;12.94;49.48;94424.44;5111223;28;20200;-77
2022/04/06 05:18:57;;;;;;;19.27;12.13;;;;;;;13.51;49.30;94426.25;5112996;28;20276;-76
2022/04/06 05:21:26;;;;;;;20.70;11.53;;;;;;;14.18;49.03;94424.19;5112993;28;20590;-78
2022/04/06 05:23:52;;;;;;;26.00;11.57;;;;;;;14.91;48.25;94424.84;5112592;28;20202;-77
2022/04/06 05:26:19;;;;;;;19.13;10.57;;;;;;;15.68;47.39;94428.13;5112977;28;20196;-78
2022/04/06 05:28:47;;;;;;;21.87;11.37;;;;;;;16.50;46.10;94433.22;5112919;28;20184;-77
2022/04/06 05:31:14;;;;;;;17.70;10.70;;;;;;;17.37;44.70;94431.56;5112393;28;20185;-79
2022/04/06 05:33:41;;;;;;;28.93;10.63;;;;;;;18.24;43.39;94439.78;5112807;28;20225;-79
2022/04/06 05:36:07;;;;;;;20.03;9.70;;;;;;;19.12;42.05;94434.75;5112451;28;20224;-76
2022/04/06 05:38:36;;;;;;;19.77;10.53;;;;;;;19.99;40.63;94433.81;5112551;28;20246;-78
2022/04/06 05:41:03;;;;;;;15.43;9.43;;;;;;;20.85;39.28;94435.38;5112502;28;20574;-77
2022/04/06 05:43:30;;;;;;;13.23;8.33;;;;;;;21.68;37.67;94442.31;5112426;28;20572;-77
2022/04/06 05:45:57;;;;;;;13.77;8.33;;;;;;;22.52;36.74;94452.16;5112320;28;20659;-77
2022/04/06 05:48:24;;;;;;;13.60;9.57;;;;;;;23.31;35.42;94448.81;5112631;28;20668;-77
2022/04/06 05:50:51;;;;;;;14.20;7.80;;;;;;;24.06;34.11;94448.28;5112502;28;20182;-78
2022/04/06 05:53:17;;;;;;;14.52;8.18;;;;;;;24.75;33.30;94451.88;5112263;28;20193;-75
2022/04/06 05:55:47;;;;;;;12.38;8.80;;;;;;;25.49;31.92;94454.56;5111949;28;20572;-79
2022/04/06 05:58:14;;;;;;;14.65;8.85;;;;;;;26.15;30.89;94457.47;5112226;28;20267;-77
2022/04/06 06:00:41;;;;;;;16.50;9.00;;;;;;;26.79;30.40;94460.44;5111854;28;20189;-77
2022/04/06 06:03:08;;;;;;;19.80;9.80;;;;;;;27.36;29.52;94459.25;5112437;28;20216;-77
2022/04/06 06:05:35;;;;;;;15.25;9.82;;;;;;;27.96;28.50;94461.66;5111992;28;20660;-78
2022/04/06 06:08:02;;;;;;;15.63;9.95;;;;;;;28.16;27.91;94403.16;5109864;28;20254;-77
2022/04/06 06:10:29;;;;;;;22.23;9.55;;;;;;;29.05;27.34;94461.22;5107894;28;20604;-74
2022/04/06 06:12:58;;;;;;;20.17;10.20;;;;;;;29.56;26.92;94459.53;5091486;28;20235;-74
2022/04/06 06:15:25;;;;;;;22.55;10.02;;;;;;;30.08;26.45;94466.41;5107495;28;20255;-73
2022/04/06 06:17:52;;;;;;;20.17;8.98;;;;;;;30.55;25.54;94472.44;5111403;28;20193;-77
2022/04/06 06:20:20;;;;;;;17.23;10.15;;;;;;;31.01;25.27;94482.88;5097374;28;20251;-74
2022/04/06 06:22:47;;;;;;;18.15;9.43;;;;;;;31.41;24.76;94471.34;5105081;28;20800;-77
2022/04/06 06:25:14;;;;;;;15.50;9.60;;;;;;;31.82;24.23;94471.03;5111379;28;20188;-71
2022/04/06 06:27:43;;;;;;;20.05;9.10;;;;;;;32.26;23.82;94470.19;5111350;28;20189;-70
2022/04/06 06:30:14;;;;;;;14.63;8.20;;;;;;;32.66;23.40;94472.47;5111184;28;20277;-71
2022/04/06 06:32:41;;;;;;;13.48;7.97;;;;;;;33.06;23.09;94470.44;5106492;28;20203;-73
2022/04/06 06:35:09;;;;;;;15.35;8.05;;;;;;;33.47;22.78;94469.94;5103221;28;20193;-72
2022/04/06 06:37:36;;;;;;;14.38;7.72;;;;;;;33.85;22.35;94461.91;5104435;28;20189;-72
2022/04/06 06:40:04;;;;;;;15.10;7.47;;;;;;;34.20;21.92;94457.94;5111099;28;20177;-73
2022/04/06 06:42:31;;;;;;;14.77;7.43;;;;;;;34.52;21.51;94464.31;5095401;28;20221;-72
2022/04/06 06:44:58;;;;;;;9.85;6.85;;;;;;;34.83;21.47;94453.88;5103538;28;20216;-72
2022/04/06 06:47:26;;;;;;;9.75;6.45;;;;;;;35.12;21.37;94462.34;5100998;28;20177;-72
2022/04/06 06:49:53;;;;;;;9.07;6.60;;;;;;;35.38;20.96;94464.47;5090612;28;20178;-71
2022/04/06 06:52:20;;;;;;;12.10;7.03;;;;;;;35.59;20.64;94462.94;5107394;28;20193;-72
2022/04/06 06:54:46;;;;;;;10.75;6.47;;;;;;;35.82;20.77;94457.63;5108395;28;20661;-73
2022/04/06 06:57:13;;;;;;;15.98;6.88;;;;;;;36.03;20.61;94457.97;5099564;28;20189;-72
2022/04/06 06:59:41;;;;;;;13.70;6.65;;;;;;;36.25;20.24;94459.81;5110430;28;20275;-71
2022/04/06 07:02:09;;;;;;;20.20;6.45;;;;;;;36.45;20.25;94459.34;5097940;28;20178;-71
2022/04/06 07:04:37;;;;;;;13.27;6.18;;;;;;;36.64;20.06;94457.19;5090388;28;20189;-71
2022/04/06 07:07:04;;;;;;;11.32;6.28;;;;;;;36.83;20.02;94461.50;5090692;28;20186;-71
2022/04/06 07:09:31;;;;;;;10.43;6.68;;;;;;;36.98;19.70;94455.78;5089741;28;20197;-72
2022/04/06 07:11:58;;;;;;;13.95;6.40;;;;;;;37.12;19.61;94458.31;5090042;28;20244;-71
2022/04/06 07:14:26;;;;;;;7.22;5.70;;;;;;;37.27;19.49;94465.88;5102423;28;20610;-71
2022/04/06 07:16:54;;;;;;;12.15;6.25;;;;;;;37.30;19.72;94451.09;5107214;28;20232;-72
2022/04/06 07:19:21;;;;;;;10.13;6.07;;;;;;;37.48;19.20;94465.28;5109058;28;20212;-72
2022/04/06 07:21:49;;;;;;;10.07;6.60;;;;;;;37.55;19.14;94460.25;5110239;28;20264;-75
2022/04/06 07:24:16;;;;;;;11.88;6.30;;;;;;;37.61;18.99;94467.00;5108704;28;20189;-75
2022/04/06 07:26:43;;;;;;;11.93;6.22;;;;;;;37.62;18.82;94461.38;5109810;28;20196;-70
2022/04/06 07:29:11;;;;;;;7.68;5.70;;;;;;;37.73;18.80;94469.06;5106823;28;20188;-72
2022/04/06 07:31:38;;;;;;;10.60;5.80;;;;;;;37.79;18.81;94468.59;5109071;28;20691;-70
2022/04/06 07:34:05;;;;;;;7.07;6.38;;;;;;;37.82;18.70;94459.94;5109328;28;20235;-70
2022/04/06 07:36:33;;;;;;;9.60;6.10;;;;;;;37.86;18.67;94463.56;5109449;28;20228;-73
2022/04/06 07:39:02;;;;;;;8.07;5.72;;;;;;;37.92;18.68;94461.53;5109713;28;20540;-71
2022/04/06 07:41:29;;;;;;;7.90;5.32;;;;;;;37.96;18.54;94465.16;5109182;28;20193;-70
2022/04/06 07:43:56;;;;;;;12.73;6.47;;;;;;;37.96;18.44;94464.38;5105082;28;20188;-71
2022/04/06 07:46:22;;;;;;;6.72;5.28;;;;;;;37.95;18.41;94463.56;5108919;28;20261;-70
2022/04/06 07:48:49;;;;;;;8.25;6.30;;;;;;;37.94;18.54;94475.34;5109421;28;20188;-70
2022/04/06 07:51:17;;;;;;;11.18;5.97;;;;;;;37.92;18.60;94461.53;5108147;28;20173;-72
2022/04/06 07:53:44;;;;;;;7.68;5.97;;;;;;;37.89;18.57;94459.50;5108358;28;20200;-73
2022/04/06 07:56:14;;;;;;;9.60;6.15;;;;;;;37.85;18.45;94458.53;5112677;28;20212;-73
2022/04/06 07:58:41;;;;;;;7.40;5.47;;;;;;;37.84;18.55;94462.31;5114216;28;20245;-74
2022/04/06 08:01:08;;;;;;;10.20;5.75;;;;;;;37.80;18.25;94462.16;5110588;28;20540;-73
2022/04/06 08:03:36;;;;;;;7.72;5.97;;;;;;;37.77;18.25;94465.44;5109545;28;20188;-71
2022/04/06 08:06:04;;;;;;;9.88;6.38;;;;;;;37.73;18.43;94461.81;5113007;28;20226;-71
2022/04/06 08:08:30;;;;;;;10.80;5.85;;;;;;;37.67;18.39;94466.53;5113231;28;20664;-70
2022/04/06 08:10:58;;;;;;;11.55;6.40;;;;;;;37.61;18.43;94453.66;5113185;28;20212;-72
2022/04/06 08:13:26;;;;;;;7.55;6.07;;;;;;;37.53;18.50;94457.13;5107328;28;20257;-73
2022/04/06 08:15:53;;;;;;;9.63;6.07;;;;;;;37.44;18.40;94454.47;5112820;28;20227;-71
2022/04/06 08:18:22;;;;;;;10.73;6.72;;;;;;;37.36;18.51;94455.22;5112701;28;20193;-71
2022/04/06 08:20:49;;;;;;;12.55;6.25;;;;;;;37.24;18.29;94455.81;5113357;28;20245;-71
2022/04/06 08:23:17;;;;;;;9.70;6.32;;;;;;;37.13;18.52;94457.97;5112811;28;20193;-71
2022/04/06 08:25:44;;;;;;;14.38;6.70;;;;;;;37.01;18.54;94455.16;5108463;28;20559;-70
2022/04/06 08:28:11;;;;;;;11.27;5.97;;;;;;;36.89;18.57;94463.72;5108709;28;20200;-73
2022/04/06 08:30:43;;;;;;;10.85;6.43;;;;;;;36.74;18.53;94445.47;5112832;28;20257;-72
2022/04/06 08:33:11;;;;;;;7.70;5.63;;;;;;;36.60;18.69;94450.13;5104917;28;20214;-73
2022/04/06 08:35:38;;;;;;;8.73;5.32;;;;;;;36.43;18.85;94443.59;5107778;28;20228;-71
2022/04/06 08:38:05;;;;;;;10.10;6.35;;;;;;;36.22;18.94;94447.09;5112851;28;20224;-71
2022/04/06 08:40:33;;;;;;;12.80;6.18;;;;;;;36.10;19.07;94461.78;5112651;28;20200;-73
2022/04/06 08:43:00;;;;;;;8.93;6.43;;;;;;;35.91;19.29;94445.16;5112661;28;20249;-72
2022/04/06 08:45:28;;;;;;;10.45;5.93;;;;;;;35.72;19.40;94441.91;5111937;28;20201;-74
2022/04/06 08:48:00;;;;;;;8.18;5.40;;;;;;;35.55;19.50;94451.34;5111929;28;20185;-74
2022/04/06 08:50:30;;;;;;;11.32;6.35;;;;;;;35.38;19.78;94446.63;5112225;28;20185;-72
2022/04/06 08:52:58;;;;;;;6.90;5.63;;;;;;;35.21;19.79;94443.03;5109804;28;20239;-70
2022/04/06 08:55:25;;;;;;;13.75;6.45;;;;;;;34.98;19.90;94431.56;5108670;28;20291;-71
2022/04/06 08:57:52;;;;;;;10.10;6.30;;;;;;;34.80;19.74;94436.63;5109391;28;20200;-71
2022/04/06 09:00:19;;;;;;;7.00;5.50;;;;;;;34.62;19.76;94435.66;5112332;28;20193;-72
2022/04/06 09:02:46;;;;;;;7.85;6.55;;;;;;;34.40;20.14;94432.88;5109448;28;20258;-73
2022/04/06 09:05:14;;;;;;;8.18;5.65;;;;;;;34.19;20.08;94430.59;5111054;28;20208;-72
2022/04/06 09:07:42;;;;;;;8.65;5.70;;;;;;;33.97;20.20;94424.34;5112021;28;20583;-72
2022/04/06 09:10:10;;;;;;;12.82;6.20;;;;;;;33.75;20.17;94425.72;5109995;28;20189;-71
2022/04/06 09:12:36;;;;;;;9.55;5.82;;;;;;;33.53;20.46;94422.91;5111927;28;20201;-71
2022/04/06 09:15:05;;;;;;;12.45;5.60;;;;;;;33.31;20.39;94418.16;5110227;28;20672;-72
2022/04/06 09:17:32;;;;;;;9.32;5.38;;;;;;;33.09;20.12;94418.72;5111912;28;20696;-71
2022/04/06 09:20:00;;;;;;;9.57;5.90;;;;;;;32.88;20.61;94418.16;5111492;28;20664;-71
2022/04/06 09:22:29;;;;;;;7.38;5.70;;;;;;;32.67;20.61;94413.13;5111417;28;20847;-71
2022/04/06 09:24:58;;;;;;;8.73;6.25;;;;;;;32.45;20.48;94405.69;5111579;28;20220;-71
2022/04/06 09:27:30;;;;;;;11.02;6.55;;;;;;;32.23;21.12;94406.16;5111161;28;20584;-72
2022/04/06 09:29:57;;;;;;;8.77;6.15;;;;;;;31.99;20.82;94402.69;5111529;28;20243;-71
2022/04/06 09:32:24;;;;;;;11.80;6.75;;;;;;;31.75;20.98;94391.25;5112087;28;20181;-71
2022/04/06 09:34:51;;;;;;;9.07;5.93;;;;;;;31.49;21.37;94394.09;5108329;28;20214;-71
2022/04/06 09:37:26;;;;;;;8.43;5.60;;;;;;;31.24;21.16;94390.53;5108709;28;20212;-71
2022/04/06 09:39:56;;;;;;;11.18;5.70;;;;;;;30.99;21.42;94388.03;5110841;28;20275;-72
2022/04/06 09:42:24;;;;;;;9.40;5.88;;;;;;;30.76;21.27;94392.13;5110436;28;20232;-70
2022/04/06 09:47:40;;;;;;;7.00;5.65;;;;;;;30.31;21.51;94379.84;5111250;28;20258;-71
2022/04/06 09:50:16;;;;;;;7.15;4.57;;;;;;;30.03;21.47;94368.03;5108742;28;20185;-70
2022/04/06 09:52:44;;;;;;;6.63;4.10;;;;;;;29.84;21.82;94381.78;5110978;28;20254;-70
2022/04/06 09:55:14;;;;;;;9.13;5.28;;;;;;;29.61;21.78;94375.19;5110603;28;20185;-70
2022/04/06 09:57:43;;;;;;;5.55;3.85;;;;;;;29.36;21.45;94357.53;5107767;28;20212;-70
2022/04/06 10:00:17;;;;;;;5.13;3.50;;;;;;;29.14;21.96;94357.75;5110695;28;20214;-71
2022/04/06 10:02:46;;;;;;;7.20;3.72;;;;;;;28.97;21.67;94358.00;5105629;28;20629;-71
2022/04/06 10:05:14;;;;;;;4.93;2.97;;;;;;;28.78;21.85;94351.59;5110774;28;20232;-71
2022/04/06 10:07:43;;;;;;;5.65;3.28;;;;;;;28.62;22.29;94348.13;5110900;28;20185;-72
2022/04/06 10:10:13;;;;;;;6.13;3.88;;;;;;;28.45;21.94;94344.91;5109779;28;20224;-71
2022/04/06 10:12:41;;;;;;;6.15;3.17;;;;;;;28.22;21.89;94344.28;5105426;28;20189;-71
2022/04/06 10:15:09;;;;;;;6.43;3.03;;;;;;;28.07;22.11;94341.59;5109082;28;20224;-71
2022/04/06 10:17:36;;;;;;;3.38;2.92;;;;;;;27.87;22.67;94333.56;5109767;28;20611;-70
2022/04/06 10:20:12;;;;;;;3.85;3.42;;;;;;;27.68;22.53;94333.19;5110613;28;20216;-72
2022/04/06 10:22:48;;;;;;;3.75;3.00;;;;;;;27.43;22.72;94318.81;5110863;28;20181;-72
2022/04/06 10:25:26;;;;;;;3.78;3.38;;;;;;;27.33;22.68;94331.06;5108382;28;20201;-71
2022/04/06 10:27:56;;;;;;;6.78;3.03;;;;;;;27.15;23.14;94325.13;5110929;28;20212;-72
2022/04/06 10:30:23;;;;;;;6.95;3.58;;;;;;;27.02;23.25;94323.69;5110041;28;20200;-71
2022/04/06 10:32:52;;;;;;;3.33;3.03;;;;;;;26.91;23.10;94313.38;5107304;28;20220;-71
2022/04/06 10:35:24;;;;;;;4.32;2.90;;;;;;;26.80;23.16;94309.84;5106814;28;20193;-74
2022/04/06 10:37:54;;;;;;;3.25;2.95;;;;;;;26.71;23.73;94303.44;5108317;28;20308;-75
2022/04/06 10:40:22;;;;;;;5.93;3.40;;;;;;;26.62;23.49;94305.72;5109996;28;20197;-73
2022/04/06 10:42:50;;;;;;;5.15;3.50;;;;;;;26.54;23.66;94302.75;5110097;28;20257;-73
2022/04/06 10:45:35;;;;;;;9.15;3.42;;;;;;;26.40;23.55;94297.88;5108337;28;20196;-74
2022/04/06 10:48:23;;;;;;;5.57;3.35;;;;;;;26.27;23.70;94293.00;5110270;28;20200;-71
2022/04/06 10:50:50;;;;;;;6.97;3.92;;;;;;;26.20;23.88;94285.31;5045698;28;20195;-72
2022/04/06 10:53:28;;;;;;;4.30;3.40;;;;;;;26.11;24.17;94280.75;5035970;28;20334;-73
2022/04/06 10:56:02;;;;;;;7.82;3.47;;;;;;;26.06;24.03;94286.72;5028682;28;20192;-74
2022/04/06 10:58:29;;;;;;;6.90;3.85;;;;;;;25.98;24.41;94282.69;5036286;28;20213;-72
2022/04/06 11:01:26;;;;;;;5.75;3.60;;;;;;;25.90;24.54;94277.88;5030828;28;20242;-72
2022/04/06 11:03:58;;;;;;;7.32;2.88;;;;;;;25.84;24.22;94271.00;4943438;29;20261;-72
2022/04/06 11:06:56;;;;;;;5.10;3.47;;;;;;;25.78;24.45;94274.59;4939281;29;20248;-71
2022/04/06 11:12:13;;;;;;;5.90;3.33;;;;;;;25.63;24.57;94276.97;4934027;29;20209;-72
2022/04/06 11:14:41;;;;;;;4.55;3.22;;;;;;;25.55;24.79;94270.31;4935490;29;20199;-71
2022/04/06 11:17:37;;;;;;;4.28;3.63;;;;;;;25.47;24.76;94276.72;4941758;29;20217;-71
2022/04/06 11:20:06;;;;;;;10.68;3.85;;;;;;;25.40;24.82;94267.47;4886004;29;20208;-71
2022/04/06 11:22:33;;;;;;;5.25;3.60;;;;;;;25.29;24.92;94250.81;4888969;29;20633;-71
2022/04/06 11:25:00;;;;;;;6.43;3.47;;;;;;;25.30;25.33;94256.84;4885013;29;20230;-71
2022/04/06 11:27:30;;;;;;;4.90;3.50;;;;;;;25.12;25.13;94224.66;4902707;28;20190;-73
2022/04/06 11:30:01;;;;;;;4.93;3.45;;;;;;;25.23;25.46;94247.34;4948021;28;20673;-72
2022/04/06 11:32:28;;;;;;;4.20;3.30;;;;;;;25.20;25.40;94241.78;4950987;28;20662;-72
2022/04/06 11:35:00;;;;;;;5.15;3.67;;;;;;;25.17;25.23;94239.63;4948182;28;20261;-72
2022/04/06 11:37:28;;;;;;;5.57;3.60;;;;;;;25.13;25.60;94234.13;4951010;28;20872;-73
2022/04/06 11:39:59;;;;;;;7.65;3.65;;;;;;;25.08;25.54;94231.41;4985672;28;20342;-71